createdAt,value
2018-08-22T00:01:30.820Z,22.13
2018-08-22T00:06:34.206Z,22.06
2018-08-22T00:11:37.534Z,22.00
2018-08-22T00:16:40.904Z,21.94
2018-08-22T00:21:44.193Z,21.96
2018-08-22T00:26:47.541Z,21.96
2018-08-22T00:31:50.846Z,21.97
2018-08-22T00:36:54.132Z,22.00
2018-08-22T00:41:57.521Z,21.98
2018-08-22T00:47:00.809Z,21.95
2018-08-22T00:52:04.184Z,21.93
2018-08-22T00:57:07.464Z,21.86
2018-08-22T01:02:10.773Z,21.82
2018-08-22T01:07:14.147Z,21.76
2018-08-22T01:12:17.477Z,21.78
2018-08-22T01:17:20.841Z,21.73
2018-08-22T01:22:24.342Z,21.76
2018-08-22T01:27:27.745Z,21.82
2018-08-22T01:32:31.064Z,21.94
2018-08-22T01:37:34.572Z,21.90
2018-08-22T01:42:37.925Z,21.82
2018-08-22T01:47:41.197Z,21.89
2018-08-22T01:52:44.634Z,21.90
2018-08-22T01:57:47.925Z,22.02
2018-08-22T02:02:51.358Z,22.12
2018-08-22T02:07:54.729Z,22.15
2018-08-22T02:12:58.225Z,22.24
2018-08-22T02:18:01.748Z,22.32
2018-08-22T02:23:05.219Z,22.28
2018-08-22T02:28:08.590Z,22.20
2018-08-22T02:33:12.923Z,22.14
2018-08-22T02:38:22.165Z,22.12
2018-08-22T02:43:25.877Z,22.18
2018-08-22T02:48:29.238Z,22.15
2018-08-22T02:53:32.917Z,21.99
2018-08-22T02:58:36.312Z,21.90
2018-08-22T03:03:39.734Z,21.94
2018-08-22T03:08:43.236Z,22.00
2018-08-22T03:13:46.600Z,22.01
2018-08-22T03:18:50.033Z,21.98
2018-08-22T03:23:53.446Z,22.01
2018-08-22T03:28:57.028Z,22.08
2018-08-22T03:34:00.389Z,22.11
2018-08-22T03:39:05.108Z,22.03
2018-08-22T03:44:08.466Z,21.97
2018-08-22T03:49:11.744Z,21.89
2018-08-22T03:54:15.032Z,21.91
2018-08-22T03:59:18.341Z,21.83
2018-08-22T04:04:21.865Z,21.82
2018-08-22T04:09:26.478Z,21.74
2018-08-22T04:14:29.835Z,21.75
2018-08-22T04:19:37.520Z,21.74
2018-08-22T04:24:40.923Z,21.67
2018-08-22T04:29:44.378Z,21.78
2018-08-22T04:34:48.317Z,21.80
2018-08-22T04:39:51.596Z,21.92
2018-08-22T04:44:54.887Z,21.97
2018-08-22T04:49:58.472Z,22.01
2018-08-22T04:55:01.806Z,21.97
2018-08-22T05:00:06.616Z,22.03
2018-08-22T05:05:10.800Z,22.13
2018-08-22T05:10:14.192Z,22.14
2018-08-22T05:15:17.485Z,22.31
2018-08-22T05:20:20.893Z,22.56
2018-08-22T05:25:27.093Z,22.81
2018-08-22T05:30:33.009Z,22.87
2018-08-22T05:35:36.777Z,22.95
2018-08-22T05:40:40.126Z,22.92
2018-08-22T05:45:43.512Z,22.99
2018-08-22T05:50:46.880Z,22.93
2018-08-22T05:55:50.265Z,23.02
2018-08-22T06:00:53.489Z,23.28
2018-08-22T06:05:56.819Z,23.52
2018-08-22T06:11:00.141Z,23.68
2018-08-22T06:16:03.469Z,23.92
2018-08-22T06:21:06.876Z,24.15
2018-08-22T06:26:10.208Z,24.23
2018-08-22T06:31:13.554Z,24.49
2018-08-22T06:36:16.944Z,24.56
2018-08-22T06:41:20.204Z,24.58
2018-08-22T06:46:23.513Z,24.86
2018-08-22T06:51:26.844Z,25.14
2018-08-22T06:56:30.276Z,25.35
2018-08-22T07:01:33.614Z,25.44
2018-08-22T07:06:36.930Z,25.45
2018-08-22T07:11:40.264Z,25.60
2018-08-22T07:16:43.677Z,25.81
2018-08-22T07:21:46.929Z,26.07
2018-08-22T07:26:50.302Z,26.34
2018-08-22T07:31:53.657Z,26.79
2018-08-22T07:36:57.025Z,26.96
2018-08-22T07:42:00.380Z,27.15
2018-08-22T07:47:03.993Z,27.36
2018-08-22T07:52:07.521Z,27.62
2018-08-22T07:57:11.254Z,27.79
2018-08-22T08:02:14.688Z,27.89
2018-08-22T08:07:18.105Z,28.06
2018-08-22T08:12:25.953Z,28.13
2018-08-22T08:17:29.246Z,28.17
2018-08-22T08:22:32.574Z,28.28
2018-08-22T08:27:35.938Z,28.59
2018-08-22T08:32:39.312Z,28.73
2018-08-22T08:37:42.701Z,28.84
2018-08-22T08:42:46.012Z,28.96
2018-08-22T08:47:49.419Z,29.12
2018-08-22T08:52:52.761Z,29.21
2018-08-22T08:57:56.133Z,29.29
2018-08-22T09:02:59.473Z,29.39
2018-08-22T09:08:02.837Z,29.58
2018-08-22T09:13:09.035Z,29.70
2018-08-22T09:18:12.386Z,29.75
2018-08-22T09:23:15.769Z,29.77
2018-08-22T09:28:19.212Z,29.88
2018-08-22T09:33:22.576Z,30.05
2018-08-22T09:38:25.937Z,30.20
2018-08-22T09:43:29.315Z,30.30
2018-08-22T09:48:32.661Z,30.39
2018-08-22T09:53:35.985Z,30.45
2018-08-22T09:58:39.321Z,30.64
2018-08-22T10:03:55.698Z,30.60
2018-08-22T10:09:04.141Z,30.76
2018-08-22T10:14:07.561Z,30.87
2018-08-22T10:19:11.055Z,30.94
2018-08-22T10:24:14.627Z,31.20
2018-08-22T10:29:17.984Z,31.32
2018-08-22T10:34:21.356Z,31.33
2018-08-22T10:39:24.719Z,31.39
2018-08-22T10:44:28.105Z,31.45
2018-08-22T10:49:31.713Z,31.56
2018-08-22T10:54:35.041Z,31.72
2018-08-22T10:59:38.913Z,31.82
2018-08-22T11:04:43.043Z,31.76
2018-08-22T11:09:47.530Z,31.88
2018-08-22T11:14:51.697Z,32.12
2018-08-22T11:19:55.727Z,32.25
2018-08-22T11:25:16.090Z,32.43
2018-08-22T11:30:36.879Z,32.47
2018-08-22T11:35:38.831Z,32.63
2018-08-22T11:40:43.074Z,32.63
2018-08-22T11:45:46.440Z,32.83
2018-08-22T11:50:49.923Z,32.85
2018-08-22T11:55:53.424Z,33.08
2018-08-22T12:00:56.739Z,32.55
2018-08-22T12:06:00.195Z,33.12
2018-08-22T12:11:03.672Z,32.97
2018-08-22T12:16:07.019Z,33.24
2018-08-22T12:21:10.390Z,33.52
2018-08-22T12:26:13.722Z,33.38
2018-08-22T12:31:17.067Z,32.89
2018-08-22T12:36:20.428Z,33.34
2018-08-22T12:41:24.146Z,33.57
2018-08-22T12:46:27.451Z,33.61
2018-08-22T12:51:30.840Z,33.63
2018-08-22T12:56:34.156Z,33.51
2018-08-22T13:01:37.528Z,33.46
2018-08-22T13:06:40.938Z,33.92
2018-08-22T13:11:44.305Z,34.71
2018-08-22T13:16:47.676Z,34.97
2018-08-22T13:21:51.023Z,34.67
2018-08-22T13:26:54.351Z,34.31
2018-08-22T13:31:57.743Z,34.14
2018-08-22T13:37:01.067Z,34.70
2018-08-22T13:42:04.503Z,35.18
2018-08-22T13:47:07.850Z,35.13
2018-08-22T13:52:11.299Z,34.92
2018-08-22T13:57:14.668Z,34.72
2018-08-22T14:02:18.107Z,34.79
2018-08-22T14:07:21.718Z,34.82
2018-08-22T14:12:25.113Z,34.88
2018-08-22T14:17:28.489Z,34.77
2018-08-22T14:22:31.878Z,34.63
2018-08-22T14:27:35.192Z,34.72
2018-08-22T14:32:38.553Z,35.16
2018-08-22T14:37:41.924Z,35.60
2018-08-22T14:42:45.341Z,35.67
2018-08-22T14:47:48.687Z,35.92
2018-08-22T14:52:52.074Z,36.04
2018-08-22T14:57:55.509Z,36.01
2018-08-22T15:02:59.070Z,36.11
2018-08-22T15:08:02.215Z,36.01
2018-08-22T15:13:05.841Z,36.01
2018-08-22T15:18:09.249Z,35.93
2018-08-22T15:23:12.661Z,35.94
2018-08-22T15:28:16.156Z,35.85
2018-08-22T15:33:19.569Z,35.79
2018-08-22T15:38:22.942Z,35.94
2018-08-22T15:43:26.287Z,35.90
2018-08-22T15:48:29.682Z,35.61
2018-08-22T15:53:33.055Z,35.30
2018-08-22T15:58:36.401Z,34.85
2018-08-22T16:03:39.805Z,34.41
2018-08-22T16:08:43.005Z,34.25
2018-08-22T16:13:46.370Z,34.18
2018-08-22T16:18:49.785Z,34.51
2018-08-22T16:23:53.109Z,34.86
2018-08-22T16:28:58.214Z,34.98
2018-08-22T16:34:01.585Z,34.79
2018-08-22T16:39:06.437Z,34.88
2018-08-22T16:44:09.970Z,34.89
2018-08-22T16:49:13.431Z,34.85
2018-08-22T16:54:17.106Z,34.76
2018-08-22T16:59:21.260Z,34.70
2018-08-22T17:04:24.614Z,34.34
2018-08-22T17:09:27.963Z,34.31
2018-08-22T17:14:31.370Z,34.27
2018-08-22T17:19:34.701Z,34.19
2018-08-22T17:24:38.089Z,34.23
2018-08-22T17:29:42.078Z,34.26
2018-08-22T17:34:45.692Z,34.10
2018-08-22T17:39:49.148Z,33.86
2018-08-22T17:44:52.537Z,33.51
2018-08-22T17:50:07.808Z,33.25
2018-08-22T17:55:11.228Z,32.86
2018-08-22T18:00:14.769Z,32.64
2018-08-22T18:05:18.343Z,32.45
2018-08-22T18:10:21.937Z,32.30
2018-08-22T18:15:25.305Z,32.12
2018-08-22T18:20:28.636Z,31.94
2018-08-22T18:25:31.978Z,31.73
2018-08-22T18:30:35.575Z,31.55
2018-08-22T18:35:43.294Z,31.40
2018-08-22T18:41:02.389Z,31.26
2018-08-22T18:46:06.973Z,30.92
2018-08-22T18:51:10.187Z,30.53
2018-08-22T18:56:15.856Z,30.15
2018-08-22T19:01:20.381Z,29.75
2018-08-22T19:06:24.937Z,29.51
2018-08-22T19:11:28.957Z,29.43
2018-08-22T19:16:32.360Z,29.20
2018-08-22T19:21:35.506Z,28.96
2018-08-22T19:26:38.669Z,28.85
2018-08-22T19:31:47.286Z,28.78
2018-08-22T19:36:50.323Z,28.62
2018-08-22T19:41:53.593Z,28.52
2018-08-22T19:46:56.671Z,28.43
2018-08-22T19:51:59.876Z,28.34
2018-08-22T19:57:02.924Z,28.22
2018-08-22T20:02:06.221Z,28.12
2018-08-22T20:07:09.238Z,28.01
2018-08-22T20:12:12.794Z,27.88
2018-08-22T20:17:21.461Z,27.74
2018-08-22T20:22:30.877Z,27.62
2018-08-22T20:27:34.050Z,27.53
2018-08-22T20:32:37.122Z,27.45
2018-08-22T20:37:40.327Z,27.21
2018-08-22T20:42:43.836Z,27.04
2018-08-22T20:47:52.830Z,26.90
2018-08-22T20:53:04.006Z,26.85
2018-08-22T20:58:08.765Z,26.83
2018-08-22T21:03:11.770Z,26.93
2018-08-22T21:08:14.805Z,26.93
2018-08-22T21:13:23.461Z,26.91
2018-08-22T21:18:26.822Z,26.89
2018-08-22T21:23:29.814Z,26.79
2018-08-22T21:28:37.509Z,26.66
2018-08-22T21:33:43.440Z,26.50
2018-08-22T21:38:46.451Z,26.35
2018-08-22T21:43:49.548Z,26.21
2018-08-22T21:48:52.905Z,26.09
2018-08-22T21:53:56.032Z,25.98
2018-08-22T21:58:59.054Z,25.86
2018-08-22T22:04:02.087Z,25.76
2018-08-22T22:09:05.989Z,25.61
2018-08-22T22:14:25.531Z,25.68
2018-08-22T22:19:31.051Z,25.63
2018-08-22T22:24:44.872Z,25.66
2018-08-22T22:29:48.014Z,25.58
2018-08-22T22:34:51.095Z,25.55
2018-08-22T22:39:54.098Z,25.48
2018-08-22T22:44:58.876Z,25.41
2018-08-22T22:50:02.765Z,25.41
2018-08-22T22:55:07.303Z,25.43
2018-08-22T23:00:13.110Z,25.41
2018-08-22T23:05:16.113Z,25.49
2018-08-22T23:10:19.117Z,25.50
2018-08-22T23:15:26.468Z,25.54
2018-08-22T23:20:50.018Z,25.52
2018-08-22T23:25:53.530Z,25.54
2018-08-22T23:30:56.507Z,25.60
2018-08-22T23:35:59.494Z,25.59
2018-08-22T23:41:02.937Z,25.52
2018-08-22T23:46:07.658Z,25.50
2018-08-22T23:51:11.821Z,25.45
2018-08-22T23:56:24.049Z,25.40
